sensor_id;sensor_type;location;lat;lon;timestamp;P1;durP1;ratioP1;P2;durP2;ratioP2
23270;SDS011;11804;51.118;17.058;2022-11-20T00:01:21;64.90;;;29.57;;
23270;SDS011;11804;51.118;17.058;2022-11-20T00:03:52;67.07;;;29.17;;
23270;SDS011;11804;51.118;17.058;2022-11-20T00:06:22;63.97;;;29.20;;
23270;SDS011;11804;51.118;17.058;2022-11-20T00:08:50;65.10;;;29.83;;
23270;SDS011;11804;51.118;17.058;2022-11-20T00:11:21;74.07;;;29.57;;
23270;SDS011;11804;51.118;17.058;2022-11-20T00:13:50;66.60;;;30.07;;
23270;SDS011;11804;51.118;17.058;2022-11-20T00:16:21;64.47;;;29.03;;
23270;SDS011;11804;51.118;17.058;2022-11-20T00:18:50;68.10;;;30.27;;
23270;SDS011;11804;51.118;17.058;2022-11-20T00:21:25;63.80;;;29.93;;
23270;SDS011;11804;51.118;17.058;2022-11-20T00:23:49;70.23;;;31.30;;
23270;SDS011;11804;51.118;17.058;2022-11-20T00:26:18;60.07;;;28.73;;
23270;SDS011;11804;51.118;17.058;2022-11-20T00:28:50;60.77;;;28.30;;
23270;SDS011;11804;51.118;17.058;2022-11-20T00:31:20;61.80;;;28.37;;
23270;SDS011;11804;51.118;17.058;2022-11-20T00:33:47;66.13;;;30.40;;
23270;SDS011;11804;51.118;17.058;2022-11-20T00:36:16;70.40;;;30.97;;
23270;SDS011;11804;51.118;17.058;2022-11-20T00:38:45;62.23;;;28.67;;
23270;SDS011;11804;51.118;17.058;2022-11-20T00:41:14;62.57;;;29.77;;
23270;SDS011;11804;51.118;17.058;2022-11-20T00:43:42;70.47;;;29.70;;
23270;SDS011;11804;51.118;17.058;2022-11-20T00:46:12;63.20;;;27.93;;
23270;SDS011;11804;51.118;17.058;2022-11-20T00:48:40;61.77;;;28.47;;
23270;SDS011;11804;51.118;17.058;2022-11-20T00:51:09;56.20;;;26.50;;
23270;SDS011;11804;51.118;17.058;2022-11-20T00:53:39;58.23;;;25.67;;
23270;SDS011;11804;51.118;17.058;2022-11-20T00:56:09;58.27;;;27.07;;
23270;SDS011;11804;51.118;17.058;2022-11-20T00:58:38;60.70;;;27.17;;
23270;SDS011;11804;51.118;17.058;2022-11-20T01:01:08;57.30;;;27.43;;
23270;SDS011;11804;51.118;17.058;2022-11-20T01:03:41;63.13;;;27.27;;
23270;SDS011;11804;51.118;17.058;2022-11-20T01:06:12;60.30;;;27.53;;
23270;SDS011;11804;51.118;17.058;2022-11-20T01:08:42;60.87;;;28.50;;
23270;SDS011;11804;51.118;17.058;2022-11-20T01:11:11;59.73;;;26.73;;
23270;SDS011;11804;51.118;17.058;2022-11-20T01:13:40;59.43;;;28.00;;
23270;SDS011;11804;51.118;17.058;2022-11-20T01:16:10;58.43;;;27.07;;
23270;SDS011;11804;51.118;17.058;2022-11-20T01:18:41;62.10;;;28.20;;
23270;SDS011;11804;51.118;17.058;2022-11-20T01:21:11;62.07;;;27.27;;
23270;SDS011;11804;51.118;17.058;2022-11-20T01:23:43;56.30;;;26.63;;
23270;SDS011;11804;51.118;17.058;2022-11-20T01:26:14;61.33;;;26.93;;
23270;SDS011;11804;51.118;17.058;2022-11-20T01:28:42;54.93;;;25.73;;
23270;SDS011;11804;51.118;17.058;2022-11-20T01:31:14;56.60;;;27.00;;
23270;SDS011;11804;51.118;17.058;2022-11-20T01:33:55;54.50;;;25.90;;
23270;SDS011;11804;51.118;17.058;2022-11-20T01:36:24;60.43;;;27.13;;
23270;SDS011;11804;51.118;17.058;2022-11-20T01:38:54;64.93;;;28.60;;
23270;SDS011;11804;51.118;17.058;2022-11-20T01:41:23;55.33;;;26.07;;
23270;SDS011;11804;51.118;17.058;2022-11-20T01:44:12;63.77;;;28.10;;
23270;SDS011;11804;51.118;17.058;2022-11-20T01:46:57;55.90;;;25.70;;
23270;SDS011;11804;51.118;17.058;2022-11-20T01:49:28;59.10;;;29.13;;
23270;SDS011;11804;51.118;17.058;2022-11-20T01:51:59;57.70;;;27.73;;
23270;SDS011;11804;51.118;17.058;2022-11-20T01:54:34;60.60;;;27.07;;
23270;SDS011;11804;51.118;17.058;2022-11-20T01:57:02;58.90;;;26.47;;
23270;SDS011;11804;51.118;17.058;2022-11-20T01:59:32;60.53;;;26.20;;
23270;SDS011;11804;51.118;17.058;2022-11-20T02:02:02;57.13;;;26.87;;
23270;SDS011;11804;51.118;17.058;2022-11-20T02:04:30;57.57;;;25.90;;
23270;SDS011;11804;51.118;17.058;2022-11-20T02:07:03;54.00;;;27.53;;
23270;SDS011;11804;51.118;17.058;2022-11-20T02:09:27;57.03;;;27.20;;
23270;SDS011;11804;51.118;17.058;2022-11-20T02:11:55;59.00;;;26.50;;
23270;SDS011;11804;51.118;17.058;2022-11-20T02:14:24;55.60;;;26.93;;
23270;SDS011;11804;51.118;17.058;2022-11-20T02:16:52;56.03;;;26.00;;
23270;SDS011;11804;51.118;17.058;2022-11-20T02:19:23;59.43;;;27.53;;
23270;SDS011;11804;51.118;17.058;2022-11-20T02:22:09;56.17;;;26.63;;
23270;SDS011;11804;51.118;17.058;2022-11-20T02:24:50;55.10;;;25.87;;
23270;SDS011;11804;51.118;17.058;2022-11-20T02:27:18;53.87;;;25.60;;
23270;SDS011;11804;51.118;17.058;2022-11-20T02:29:50;54.63;;;25.47;;
23270;SDS011;11804;51.118;17.058;2022-11-20T02:32:25;51.50;;;25.00;;
23270;SDS011;11804;51.118;17.058;2022-11-20T02:34:56;55.80;;;26.27;;
23270;SDS011;11804;51.118;17.058;2022-11-20T02:37:30;59.77;;;27.17;;
23270;SDS011;11804;51.118;17.058;2022-11-20T02:39:55;59.10;;;27.17;;
23270;SDS011;11804;51.118;17.058;2022-11-20T02:42:22;60.13;;;27.00;;
23270;SDS011;11804;51.118;17.058;2022-11-20T02:44:50;56.43;;;26.70;;
23270;SDS011;11804;51.118;17.058;2022-11-20T02:47:18;60.40;;;27.97;;
23270;SDS011;11804;51.118;17.058;2022-11-20T02:49:45;58.20;;;27.63;;
23270;SDS011;11804;51.118;17.058;2022-11-20T02:52:13;57.67;;;27.07;;
23270;SDS011;11804;51.118;17.058;2022-11-20T02:54:40;55.50;;;26.13;;
23270;SDS011;11804;51.118;17.058;2022-11-20T02:57:08;56.07;;;27.20;;
23270;SDS011;11804;51.118;17.058;2022-11-20T02:59:35;56.37;;;26.73;;
23270;SDS011;11804;51.118;17.058;2022-11-20T03:02:03;54.50;;;26.20;;
23270;SDS011;11804;51.118;17.058;2022-11-20T03:04:30;55.13;;;26.17;;
23270;SDS011;11804;51.118;17.058;2022-11-20T03:06:59;55.33;;;26.27;;
23270;SDS011;11804;51.118;17.058;2022-11-20T03:09:27;51.83;;;24.60;;
23270;SDS011;11804;51.118;17.058;2022-11-20T03:11:55;56.17;;;25.60;;
23270;SDS011;11804;51.118;17.058;2022-11-20T03:14:22;61.40;;;27.10;;
23270;SDS011;11804;51.118;17.058;2022-11-20T03:16:50;53.43;;;25.60;;
23270;SDS011;11804;51.118;17.058;2022-11-20T03:19:18;57.57;;;27.17;;
23270;SDS011;11804;51.118;17.058;2022-11-20T03:21:45;57.10;;;27.10;;
23270;SDS011;11804;51.118;17.058;2022-11-20T03:24:16;65.20;;;27.97;;
23270;SDS011;11804;51.118;17.058;2022-11-20T03:26:44;63.67;;;27.30;;
23270;SDS011;11804;51.118;17.058;2022-11-20T03:29:15;73.77;;;29.23;;
23270;SDS011;11804;51.118;17.058;2022-11-20T03:31:42;62.37;;;28.43;;
23270;SDS011;11804;51.118;17.058;2022-11-20T03:34:10;60.27;;;28.50;;
23270;SDS011;11804;51.118;17.058;2022-11-20T03:36:38;61.83;;;28.53;;
23270;SDS011;11804;51.118;17.058;2022-11-20T03:39:08;59.00;;;27.47;;
23270;SDS011;11804;51.118;17.058;2022-11-20T03:41:37;61.40;;;28.13;;
23270;SDS011;11804;51.118;17.058;2022-11-20T03:44:07;60.23;;;27.80;;
23270;SDS011;11804;51.118;17.058;2022-11-20T03:46:35;59.27;;;26.27;;
23270;SDS011;11804;51.118;17.058;2022-11-20T03:49:04;57.30;;;26.77;;
23270;SDS011;11804;51.118;17.058;2022-11-20T03:51:34;56.33;;;26.40;;
23270;SDS011;11804;51.118;17.058;2022-11-20T03:54:03;55.40;;;26.10;;
23270;SDS011;11804;51.118;17.058;2022-11-20T03:56:34;56.20;;;26.77;;
23270;SDS011;11804;51.118;17.058;2022-11-20T03:59:03;58.73;;;27.77;;
23270;SDS011;11804;51.118;17.058;2022-11-20T04:01:33;62.17;;;27.57;;
23270;SDS011;11804;51.118;17.058;2022-11-20T04:04:03;61.67;;;27.73;;
23270;SDS011;11804;51.118;17.058;2022-11-20T04:06:35;58.83;;;28.30;;
23270;SDS011;11804;51.118;17.058;2022-11-20T04:09:04;56.27;;;28.20;;
23270;SDS011;11804;51.118;17.058;2022-11-20T04:11:34;55.63;;;26.87;;
23270;SDS011;11804;51.118;17.058;2022-11-20T04:14:04;62.70;;;28.03;;
23270;SDS011;11804;51.118;17.058;2022-11-20T04:16:35;55.60;;;27.70;;
23270;SDS011;11804;51.118;17.058;2022-11-20T04:19:04;58.23;;;27.43;;
23270;SDS011;11804;51.118;17.058;2022-11-20T04:21:33;57.00;;;26.67;;
23270;SDS011;11804;51.118;17.058;2022-11-20T04:24:00;61.30;;;27.00;;
23270;SDS011;11804;51.118;17.058;2022-11-20T04:26:29;60.17;;;27.50;;
23270;SDS011;11804;51.118;17.058;2022-11-20T04:28:58;56.93;;;27.23;;
23270;SDS011;11804;51.118;17.058;2022-11-20T04:31:29;55.57;;;27.17;;
23270;SDS011;11804;51.118;17.058;2022-11-20T04:33:59;60.17;;;28.23;;
23270;SDS011;11804;51.118;17.058;2022-11-20T04:36:28;65.37;;;29.87;;
23270;SDS011;11804;51.118;17.058;2022-11-20T04:39:02;58.77;;;28.10;;
23270;SDS011;11804;51.118;17.058;2022-11-20T04:41:28;60.63;;;28.57;;
23270;SDS011;11804;51.118;17.058;2022-11-20T04:43:58;62.30;;;29.73;;
23270;SDS011;11804;51.118;17.058;2022-11-20T04:46:30;57.60;;;27.80;;
23270;SDS011;11804;51.118;17.058;2022-11-20T04:48:59;58.20;;;29.80;;
23270;SDS011;11804;51.118;17.058;2022-11-20T04:51:27;63.33;;;28.90;;
23270;SDS011;11804;51.118;17.058;2022-11-20T04:53:54;60.50;;;30.13;;
23270;SDS011;11804;51.118;17.058;2022-11-20T04:56:23;65.20;;;30.97;;
23270;SDS011;11804;51.118;17.058;2022-11-20T04:58:50;64.90;;;30.50;;
23270;SDS011;11804;51.118;17.058;2022-11-20T05:01:19;61.77;;;30.30;;
23270;SDS011;11804;51.118;17.058;2022-11-20T05:03:49;68.20;;;30.93;;
23270;SDS011;11804;51.118;17.058;2022-11-20T05:06:18;69.03;;;30.80;;
23270;SDS011;11804;51.118;17.058;2022-11-20T05:08:47;70.37;;;32.73;;
23270;SDS011;11804;51.118;17.058;2022-11-20T05:11:16;74.73;;;32.87;;
23270;SDS011;11804;51.118;17.058;2022-11-20T05:13:45;66.27;;;30.37;;
23270;SDS011;11804;51.118;17.058;2022-11-20T05:16:14;71.30;;;30.90;;
23270;SDS011;11804;51.118;17.058;2022-11-20T05:18:44;69.33;;;31.57;;
23270;SDS011;11804;51.118;17.058;2022-11-20T05:21:12;64.03;;;30.17;;
23270;SDS011;11804;51.118;17.058;2022-11-20T05:23:40;68.57;;;32.30;;
23270;SDS011;11804;51.118;17.058;2022-11-20T05:26:18;67.20;;;31.23;;
23270;SDS011;11804;51.118;17.058;2022-11-20T05:28:47;66.20;;;30.93;;
23270;SDS011;11804;51.118;17.058;2022-11-20T05:31:16;64.27;;;31.43;;
23270;SDS011;11804;51.118;17.058;2022-11-20T05:33:46;69.53;;;34.07;;
23270;SDS011;11804;51.118;17.058;2022-11-20T05:36:14;69.87;;;32.37;;
23270;SDS011;11804;51.118;17.058;2022-11-20T05:38:43;75.17;;;34.27;;
23270;SDS011;11804;51.118;17.058;2022-11-20T05:41:12;73.23;;;33.23;;
23270;SDS011;11804;51.118;17.058;2022-11-20T05:43:41;77.33;;;34.33;;
23270;SDS011;11804;51.118;17.058;2022-11-20T05:46:10;74.47;;;34.23;;
23270;SDS011;11804;51.118;17.058;2022-11-20T05:48:40;69.77;;;33.10;;
23270;SDS011;11804;51.118;17.058;2022-11-20T05:51:10;73.13;;;33.30;;
23270;SDS011;11804;51.118;17.058;2022-11-20T05:53:40;73.97;;;34.63;;
23270;SDS011;11804;51.118;17.058;2022-11-20T05:56:15;77.50;;;32.70;;
23270;SDS011;11804;51.118;17.058;2022-11-20T05:59:03;73.10;;;33.07;;
23270;SDS011;11804;51.118;17.058;2022-11-20T06:01:20;68.03;;;32.33;;
23270;SDS011;11804;51.118;17.058;2022-11-20T06:03:50;69.93;;;30.77;;
23270;SDS011;11804;51.118;17.058;2022-11-20T06:06:19;76.33;;;33.57;;
23270;SDS011;11804;51.118;17.058;2022-11-20T06:08:47;74.83;;;33.50;;
23270;SDS011;11804;51.118;17.058;2022-11-20T06:11:15;72.47;;;33.63;;
23270;SDS011;11804;51.118;17.058;2022-11-20T06:13:46;71.27;;;32.63;;
23270;SDS011;11804;51.118;17.058;2022-11-20T06:16:16;71.63;;;33.47;;
23270;SDS011;11804;51.118;17.058;2022-11-20T06:18:46;70.70;;;33.47;;
23270;SDS011;11804;51.118;17.058;2022-11-20T06:21:16;73.20;;;34.60;;
23270;SDS011;11804;51.118;17.058;2022-11-20T06:23:46;67.10;;;33.40;;
23270;SDS011;11804;51.118;17.058;2022-11-20T06:26:16;71.17;;;34.77;;
23270;SDS011;11804;51.118;17.058;2022-11-20T06:28:46;72.60;;;32.20;;
23270;SDS011;11804;51.118;17.058;2022-11-20T06:31:15;76.50;;;34.13;;
23270;SDS011;11804;51.118;17.058;2022-11-20T06:33:45;72.20;;;33.17;;
23270;SDS011;11804;51.118;17.058;2022-11-20T06:36:14;72.37;;;33.17;;
23270;SDS011;11804;51.118;17.058;2022-11-20T06:38:43;76.83;;;35.33;;
23270;SDS011;11804;51.118;17.058;2022-11-20T06:41:15;73.80;;;33.50;;
23270;SDS011;11804;51.118;17.058;2022-11-20T06:43:42;74.77;;;34.03;;
23270;SDS011;11804;51.118;17.058;2022-11-20T06:46:11;72.67;;;34.13;;
23270;SDS011;11804;51.118;17.058;2022-11-20T06:48:39;72.00;;;33.83;;
23270;SDS011;11804;51.118;17.058;2022-11-20T06:51:15;73.47;;;33.27;;
23270;SDS011;11804;51.118;17.058;2022-11-20T06:53:43;74.87;;;34.60;;
23270;SDS011;11804;51.118;17.058;2022-11-20T06:56:11;77.03;;;36.17;;
23270;SDS011;11804;51.118;17.058;2022-11-20T06:58:38;78.13;;;34.77;;
23270;SDS011;11804;51.118;17.058;2022-11-20T07:01:09;70.13;;;34.17;;
23270;SDS011;11804;51.118;17.058;2022-11-20T07:03:39;75.57;;;35.80;;
23270;SDS011;11804;51.118;17.058;2022-11-20T07:06:07;69.23;;;33.10;;
23270;SDS011;11804;51.118;17.058;2022-11-20T07:08:35;70.17;;;34.23;;
23270;SDS011;11804;51.118;17.058;2022-11-20T07:11:04;75.27;;;34.30;;
23270;SDS011;11804;51.118;17.058;2022-11-20T07:13:36;75.03;;;35.47;;
23270;SDS011;11804;51.118;17.058;2022-11-20T07:16:13;77.40;;;36.00;;
23270;SDS011;11804;51.118;17.058;2022-11-20T07:18:51;72.23;;;36.20;;
23270;SDS011;11804;51.118;17.058;2022-11-20T07:21:23;77.90;;;34.63;;
23270;SDS011;11804;51.118;17.058;2022-11-20T07:23:50;75.17;;;36.30;;
23270;SDS011;11804;51.118;17.058;2022-11-20T07:26:18;79.30;;;36.27;;
23270;SDS011;11804;51.118;17.058;2022-11-20T07:28:46;74.70;;;36.20;;
23270;SDS011;11804;51.118;17.058;2022-11-20T07:31:13;71.00;;;34.87;;
23270;SDS011;11804;51.118;17.058;2022-11-20T07:33:41;76.37;;;34.60;;
23270;SDS011;11804;51.118;17.058;2022-11-20T07:36:08;78.77;;;34.80;;
23270;SDS011;11804;51.118;17.058;2022-11-20T07:38:36;73.70;;;36.57;;
23270;SDS011;11804;51.118;17.058;2022-11-20T07:41:04;71.63;;;33.47;;
23270;SDS011;11804;51.118;17.058;2022-11-20T07:43:32;74.80;;;34.90;;
23270;SDS011;11804;51.118;17.058;2022-11-20T07:45:59;73.83;;;33.67;;
23270;SDS011;11804;51.118;17.058;2022-11-20T07:48:27;64.37;;;31.53;;
23270;SDS011;11804;51.118;17.058;2022-11-20T07:50:55;67.97;;;32.13;;
23270;SDS011;11804;51.118;17.058;2022-11-20T07:53:23;60.87;;;31.57;;
23270;SDS011;11804;51.118;17.058;2022-11-20T07:55:51;64.43;;;30.10;;
23270;SDS011;11804;51.118;17.058;2022-11-20T07:58:19;59.97;;;28.53;;
23270;SDS011;11804;51.118;17.058;2022-11-20T08:00:47;55.10;;;27.83;;
23270;SDS011;11804;51.118;17.058;2022-11-20T08:03:14;56.07;;;27.57;;
23270;SDS011;11804;51.118;17.058;2022-11-20T08:05:42;51.77;;;27.20;;
23270;SDS011;11804;51.118;17.058;2022-11-20T08:08:10;54.83;;;26.50;;
23270;SDS011;11804;51.118;17.058;2022-11-20T08:10:37;49.87;;;26.40;;
23270;SDS011;11804;51.118;17.058;2022-11-20T08:13:05;52.33;;;26.00;;
23270;SDS011;11804;51.118;17.058;2022-11-20T08:15:47;53.40;;;26.13;;
23270;SDS011;11804;51.118;17.058;2022-11-20T08:18:13;52.93;;;25.77;;
23270;SDS011;11804;51.118;17.058;2022-11-20T08:20:41;55.30;;;27.17;;
23270;SDS011;11804;51.118;17.058;2022-11-20T08:23:08;57.60;;;27.43;;
23270;SDS011;11804;51.118;17.058;2022-11-20T08:25:37;57.77;;;28.63;;
23270;SDS011;11804;51.118;17.058;2022-11-20T08:28:06;55.10;;;28.10;;
23270;SDS011;11804;51.118;17.058;2022-11-20T08:30:35;54.10;;;27.53;;
23270;SDS011;11804;51.118;17.058;2022-11-20T08:33:05;54.80;;;28.87;;
23270;SDS011;11804;51.118;17.058;2022-11-20T08:35:37;63.33;;;28.93;;
23270;SDS011;11804;51.118;17.058;2022-11-20T08:38:06;60.77;;;29.33;;
23270;SDS011;11804;51.118;17.058;2022-11-20T08:40:35;55.70;;;27.57;;
23270;SDS011;11804;51.118;17.058;2022-11-20T08:43:02;59.93;;;29.17;;
23270;SDS011;11804;51.118;17.058;2022-11-20T08:45:30;56.53;;;29.20;;
23270;SDS011;11804;51.118;17.058;2022-11-20T08:48:01;52.90;;;26.93;;
23270;SDS011;11804;51.118;17.058;2022-11-20T08:50:31;53.03;;;26.90;;
23270;SDS011;11804;51.118;17.058;2022-11-20T08:53:06;54.63;;;28.07;;
23270;SDS011;11804;51.118;17.058;2022-11-20T08:55:32;56.23;;;27.13;;
23270;SDS011;11804;51.118;17.058;2022-11-20T08:58:04;48.60;;;26.43;;
23270;SDS011;11804;51.118;17.058;2022-11-20T09:00:33;52.80;;;25.97;;
23270;SDS011;11804;51.118;17.058;2022-11-20T09:03:01;52.53;;;26.90;;
23270;SDS011;11804;51.118;17.058;2022-11-20T09:05:29;54.30;;;26.80;;
23270;SDS011;11804;51.118;17.058;2022-11-20T09:07:57;54.70;;;26.50;;
23270;SDS011;11804;51.118;17.058;2022-11-20T09:10:25;48.70;;;24.13;;
23270;SDS011;11804;51.118;17.058;2022-11-20T09:12:54;48.60;;;24.97;;
23270;SDS011;11804;51.118;17.058;2022-11-20T09:15:22;48.97;;;25.23;;
23270;SDS011;11804;51.118;17.058;2022-11-20T09:17:55;47.60;;;24.83;;
23270;SDS011;11804;51.118;17.058;2022-11-20T09:20:24;44.07;;;23.90;;
23270;SDS011;11804;51.118;17.058;2022-11-20T09:22:54;44.97;;;24.97;;
23270;SDS011;11804;51.118;17.058;2022-11-20T09:25:22;44.80;;;25.27;;
23270;SDS011;11804;51.118;17.058;2022-11-20T09:28:01;48.90;;;29.27;;
23270;SDS011;11804;51.118;17.058;2022-11-20T09:30:26;44.70;;;26.10;;
23270;SDS011;11804;51.118;17.058;2022-11-20T09:32:53;43.60;;;26.63;;
23270;SDS011;11804;51.118;17.058;2022-11-20T09:35:21;42.07;;;26.73;;
23270;SDS011;11804;51.118;17.058;2022-11-20T09:37:49;46.83;;;29.00;;
23270;SDS011;11804;51.118;17.058;2022-11-20T09:43:10;44.40;;;27.13;;
23270;SDS011;11804;51.118;17.058;2022-11-20T09:45:23;45.30;;;29.63;;
23270;SDS011;11804;51.118;17.058;2022-11-20T09:50:45;40.37;;;24.83;;
23270;SDS011;11804;51.118;17.058;2022-11-20T09:56:03;46.03;;;27.03;;
23270;SDS011;11804;51.118;17.058;2022-11-20T09:58:47;44.57;;;25.47;;
23270;SDS011;11804;51.118;17.058;2022-11-20T10:01:20;38.23;;;22.57;;
23270;SDS011;11804;51.118;17.058;2022-11-20T10:03:57;39.23;;;21.30;;
23270;SDS011;11804;51.118;17.058;2022-11-20T10:06:33;33.93;;;20.63;;
23270;SDS011;11804;51.118;17.058;2022-11-20T10:15:10;34.93;;;20.33;;
23270;SDS011;11804;51.118;17.058;2022-11-20T10:23:00;33.37;;;19.20;;
23270;SDS011;11804;51.118;17.058;2022-11-20T10:25:46;30.60;;;19.37;;
23270;SDS011;11804;51.118;17.058;2022-11-20T10:28:22;28.77;;;19.03;;
23270;SDS011;11804;51.118;17.058;2022-11-20T10:31:09;30.37;;;18.27;;
23270;SDS011;11804;51.118;17.058;2022-11-20T10:33:39;28.60;;;18.03;;
23270;SDS011;11804;51.118;17.058;2022-11-20T10:36:17;28.60;;;18.67;;
23270;SDS011;11804;51.118;17.058;2022-11-20T10:38:46;29.80;;;18.93;;
23270;SDS011;11804;51.118;17.058;2022-11-20T10:41:23;32.70;;;21.10;;
23270;SDS011;11804;51.118;17.058;2022-11-20T10:44:03;32.13;;;20.77;;
23270;SDS011;11804;51.118;17.058;2022-11-20T10:46:25;32.03;;;20.37;;
23270;SDS011;11804;51.118;17.058;2022-11-20T10:48:56;32.57;;;21.00;;
23270;SDS011;11804;51.118;17.058;2022-11-20T10:51:30;34.03;;;22.33;;
23270;SDS011;11804;51.118;17.058;2022-11-20T10:54:10;34.57;;;20.83;;
23270;SDS011;11804;51.118;17.058;2022-11-20T10:56:40;32.03;;;19.83;;
23270;SDS011;11804;51.118;17.058;2022-11-20T11:02:01;32.63;;;18.77;;
23270;SDS011;11804;51.118;17.058;2022-11-20T11:04:48;35.40;;;20.17;;
23270;SDS011;11804;51.118;17.058;2022-11-20T11:09:55;32.37;;;18.70;;
23270;SDS011;11804;51.118;17.058;2022-11-20T11:12:24;32.93;;;17.70;;
23270;SDS011;11804;51.118;17.058;2022-11-20T11:14:57;31.10;;;17.63;;
23270;SDS011;11804;51.118;17.058;2022-11-20T11:17:26;35.77;;;17.73;;
23270;SDS011;11804;51.118;17.058;2022-11-20T11:22:46;27.10;;;15.10;;
23270;SDS011;11804;51.118;17.058;2022-11-20T11:27:55;28.63;;;15.60;;
23270;SDS011;11804;51.118;17.058;2022-11-20T11:30:26;29.80;;;14.83;;
23270;SDS011;11804;51.118;17.058;2022-11-20T11:33:06;36.70;;;16.23;;
23270;SDS011;11804;51.118;17.058;2022-11-20T11:35:43;28.23;;;16.20;;
23270;SDS011;11804;51.118;17.058;2022-11-20T11:38:14;27.40;;;15.10;;
23270;SDS011;11804;51.118;17.058;2022-11-20T11:40:43;28.00;;;15.43;;
23270;SDS011;11804;51.118;17.058;2022-11-20T11:43:26;25.20;;;14.27;;
23270;SDS011;11804;51.118;17.058;2022-11-20T11:46:35;24.43;;;13.40;;
23270;SDS011;11804;51.118;17.058;2022-11-20T11:48:57;26.90;;;13.97;;
23270;SDS011;11804;51.118;17.058;2022-11-20T11:51:34;25.13;;;13.57;;
23270;SDS011;11804;51.118;17.058;2022-11-20T11:54:11;25.10;;;13.57;;
23270;SDS011;11804;51.118;17.058;2022-11-20T11:56:39;27.73;;;14.47;;
23270;SDS011;11804;51.118;17.058;2022-11-20T11:59:08;27.77;;;15.57;;
23270;SDS011;11804;51.118;17.058;2022-11-20T12:01:43;24.53;;;13.90;;
23270;SDS011;11804;51.118;17.058;2022-11-20T12:04:19;27.83;;;14.27;;
23270;SDS011;11804;51.118;17.058;2022-11-20T12:06:49;27.47;;;14.77;;
23270;SDS011;11804;51.118;17.058;2022-11-20T12:09:26;25.73;;;14.30;;
23270;SDS011;11804;51.118;17.058;2022-11-20T12:12:05;31.67;;;15.17;;
23270;SDS011;11804;51.118;17.058;2022-11-20T12:14:45;30.10;;;16.80;;
23270;SDS011;11804;51.118;17.058;2022-11-20T12:17:15;28.93;;;16.23;;
23270;SDS011;11804;51.118;17.058;2022-11-20T12:19:48;28.60;;;15.80;;
23270;SDS011;11804;51.118;17.058;2022-11-20T12:22:28;26.30;;;14.73;;
23270;SDS011;11804;51.118;17.058;2022-11-20T12:24:57;27.93;;;14.93;;
23270;SDS011;11804;51.118;17.058;2022-11-20T12:30:11;25.97;;;14.03;;
23270;SDS011;11804;51.118;17.058;2022-11-20T12:38:40;25.63;;;14.13;;
23270;SDS011;11804;51.118;17.058;2022-11-20T12:47:23;26.80;;;14.27;;
23270;SDS011;11804;51.118;17.058;2022-11-20T12:50:11;29.73;;;15.33;;
23270;SDS011;11804;51.118;17.058;2022-11-20T12:55:33;24.57;;;13.87;;
23270;SDS011;11804;51.118;17.058;2022-11-20T12:58:35;38.77;;;20.47;;
23270;SDS011;11804;51.118;17.058;2022-11-20T13:03:58;31.47;;;15.93;;
23270;SDS011;11804;51.118;17.058;2022-11-20T13:06:29;25.80;;;14.47;;
23270;SDS011;11804;51.118;17.058;2022-11-20T13:08:57;30.57;;;15.30;;
23270;SDS011;11804;51.118;17.058;2022-11-20T13:14:07;30.73;;;18.07;;
23270;SDS011;11804;51.118;17.058;2022-11-20T13:19:26;32.87;;;18.00;;
23270;SDS011;11804;51.118;17.058;2022-11-20T13:21:56;26.67;;;15.53;;
23270;SDS011;11804;51.118;17.058;2022-11-20T13:24:25;31.37;;;16.57;;
23270;SDS011;11804;51.118;17.058;2022-11-20T13:29:42;26.63;;;14.97;;
23270;SDS011;11804;51.118;17.058;2022-11-20T13:32:18;36.10;;;17.70;;
23270;SDS011;11804;51.118;17.058;2022-11-20T13:35:08;41.30;;;21.90;;
23270;SDS011;11804;51.118;17.058;2022-11-20T13:37:34;28.53;;;14.93;;
23270;SDS011;11804;51.118;17.058;2022-11-20T13:42:43;28.50;;;14.27;;
23270;SDS011;11804;51.118;17.058;2022-11-20T13:45:29;25.67;;;13.90;;
23270;SDS011;11804;51.118;17.058;2022-11-20T13:48:00;25.03;;;13.63;;
23270;SDS011;11804;51.118;17.058;2022-11-20T13:53:13;25.67;;;14.73;;
23270;SDS011;11804;51.118;17.058;2022-11-20T14:01:23;24.20;;;13.33;;
23270;SDS011;11804;51.118;17.058;2022-11-20T14:03:49;21.37;;;12.43;;
23270;SDS011;11804;51.118;17.058;2022-11-20T14:06:23;24.93;;;13.50;;
23270;SDS011;11804;51.118;17.058;2022-11-20T14:08:55;25.30;;;13.37;;
23270;SDS011;11804;51.118;17.058;2022-11-20T14:11:24;21.00;;;12.70;;
23270;SDS011;11804;51.118;17.058;2022-11-20T14:13:57;28.83;;;14.40;;
23270;SDS011;11804;51.118;17.058;2022-11-20T14:16:29;25.50;;;14.33;;
23270;SDS011;11804;51.118;17.058;2022-11-20T14:19:37;26.00;;;13.87;;
23270;SDS011;11804;51.118;17.058;2022-11-20T14:21:51;29.00;;;14.70;;
23270;SDS011;11804;51.118;17.058;2022-11-20T14:24:20;27.80;;;14.77;;
23270;SDS011;11804;51.118;17.058;2022-11-20T14:26:49;27.83;;;14.30;;
23270;SDS011;11804;51.118;17.058;2022-11-20T14:29:22;28.03;;;15.03;;
23270;SDS011;11804;51.118;17.058;2022-11-20T14:31:51;28.07;;;15.20;;
23270;SDS011;11804;51.118;17.058;2022-11-20T14:34:29;31.80;;;15.60;;
23270;SDS011;11804;51.118;17.058;2022-11-20T14:36:58;29.37;;;15.57;;
23270;SDS011;11804;51.118;17.058;2022-11-20T14:39:31;37.10;;;19.67;;
23270;SDS011;11804;51.118;17.058;2022-11-20T14:42:01;35.90;;;19.30;;
23270;SDS011;11804;51.118;17.058;2022-11-20T14:44:31;35.23;;;18.27;;
23270;SDS011;11804;51.118;17.058;2022-11-20T14:47:00;32.20;;;17.60;;
23270;SDS011;11804;51.118;17.058;2022-11-20T14:49:29;34.60;;;18.67;;
23270;SDS011;11804;51.118;17.058;2022-11-20T14:51:59;40.23;;;17.90;;
23270;SDS011;11804;51.118;17.058;2022-11-20T14:54:31;36.53;;;18.03;;
23270;SDS011;11804;51.118;17.058;2022-11-20T14:57:02;39.93;;;18.97;;
23270;SDS011;11804;51.118;17.058;2022-11-20T14:59:33;36.13;;;18.07;;
23270;SDS011;11804;51.118;17.058;2022-11-20T15:02:03;38.13;;;17.27;;
23270;SDS011;11804;51.118;17.058;2022-11-20T15:04:32;46.53;;;23.00;;
23270;SDS011;11804;51.118;17.058;2022-11-20T15:07:01;42.73;;;23.97;;
23270;SDS011;11804;51.118;17.058;2022-11-20T15:09:29;37.03;;;20.07;;
23270;SDS011;11804;51.118;17.058;2022-11-20T15:11:57;52.40;;;24.57;;
23270;SDS011;11804;51.118;17.058;2022-11-20T15:14:27;47.73;;;23.90;;
23270;SDS011;11804;51.118;17.058;2022-11-20T15:16:56;43.30;;;22.77;;
23270;SDS011;11804;51.118;17.058;2022-11-20T15:19:24;41.50;;;20.97;;
23270;SDS011;11804;51.118;17.058;2022-11-20T15:21:53;41.60;;;21.70;;
23270;SDS011;11804;51.118;17.058;2022-11-20T15:24:21;55.07;;;24.27;;
23270;SDS011;11804;51.118;17.058;2022-11-20T15:26:48;42.80;;;22.03;;
23270;SDS011;11804;51.118;17.058;2022-11-20T15:29:16;43.10;;;21.13;;
23270;SDS011;11804;51.118;17.058;2022-11-20T15:31:44;40.50;;;19.93;;
23270;SDS011;11804;51.118;17.058;2022-11-20T15:34:16;39.57;;;19.83;;
23270;SDS011;11804;51.118;17.058;2022-11-20T15:36:44;43.67;;;20.83;;
23270;SDS011;11804;51.118;17.058;2022-11-20T15:39:11;45.20;;;21.33;;